createdAt,value
2019-06-08T00:02:29.257Z,1.90
2019-06-08T00:04:59.167Z,1.47
2019-06-08T00:07:29.150Z,1.30
2019-06-08T00:09:59.156Z,1.30
2019-06-08T00:12:29.146Z,1.20
2019-06-08T00:14:59.256Z,1.10
2019-06-08T00:17:38.190Z,1.22
2019-06-08T00:20:00.704Z,1.10
2019-06-08T00:22:30.584Z,1.40
2019-06-08T00:25:00.592Z,1.10
2019-06-08T00:27:30.495Z,1.25
2019-06-08T00:30:00.844Z,1.37
2019-06-08T00:32:30.859Z,1.32
2019-06-08T00:35:00.715Z,1.50
2019-06-08T00:37:30.724Z,1.42
2019-06-08T00:40:00.598Z,1.10
2019-06-08T00:42:30.494Z,1.32
2019-06-08T00:45:00.516Z,1.60
2019-06-08T00:47:46.582Z,1.27
2019-06-08T00:50:02.044Z,1.40
2019-06-08T00:52:32.175Z,1.45
2019-06-08T00:55:02.391Z,1.40
2019-06-08T00:57:32.538Z,1.50
2019-06-08T01:00:10.308Z,1.60
2019-06-08T01:02:34.578Z,1.40
2019-06-08T01:05:06.275Z,1.60
2019-06-08T01:07:36.379Z,1.65
2019-06-08T01:10:09.981Z,1.80
2019-06-08T01:12:40.096Z,1.52
2019-06-08T01:15:10.660Z,1.80
2019-06-08T01:17:40.583Z,1.92
2019-06-08T01:20:11.442Z,1.57
2019-06-08T01:22:41.426Z,1.85
2019-06-08T01:25:11.791Z,1.95
2019-06-08T01:27:41.792Z,2.27
2019-06-08T01:30:12.164Z,1.60
2019-06-08T01:32:42.033Z,1.80
2019-06-08T01:35:12.155Z,2.00
2019-06-08T01:37:42.159Z,2.17
2019-06-08T01:40:12.398Z,1.92
2019-06-08T01:42:42.406Z,2.12
2019-06-08T01:45:14.565Z,2.42
2019-06-08T01:47:44.805Z,2.08
2019-06-08T01:50:14.956Z,2.17
2019-06-08T01:52:45.048Z,2.12
2019-06-08T01:55:15.075Z,2.75
2019-06-08T01:57:45.649Z,2.52
2019-06-08T02:00:29.998Z,2.98
2019-06-08T02:02:48.292Z,2.40
2019-06-08T02:05:18.871Z,2.20
2019-06-08T02:07:49.148Z,2.22
2019-06-08T02:10:21.515Z,2.65
2019-06-08T02:12:51.528Z,2.27
2019-06-08T02:15:22.045Z,2.52
2019-06-08T02:17:52.264Z,2.30
2019-06-08T02:20:23.136Z,2.37
2019-06-08T02:22:53.114Z,2.17
2019-06-08T02:25:27.554Z,2.45
2019-06-08T02:27:58.279Z,2.62
2019-06-08T02:30:36.110Z,2.37
2019-06-08T02:33:04.891Z,2.30
2019-06-08T02:35:37.608Z,2.75
2019-06-08T02:38:06.951Z,2.58
2019-06-08T02:40:38.122Z,2.37
2019-06-08T02:43:08.491Z,2.50
2019-06-08T02:45:40.377Z,2.33
2019-06-08T02:48:11.036Z,2.40
2019-06-08T02:50:54.093Z,2.47
2019-06-08T02:53:25.292Z,2.87
2019-06-08T02:55:56.252Z,2.35
2019-06-08T02:58:26.855Z,2.55
2019-06-08T03:00:57.698Z,2.22
2019-06-08T03:03:31.699Z,2.90
2019-06-08T03:06:04.214Z,2.40
2019-06-08T03:08:41.174Z,2.95
2019-06-08T03:11:10.560Z,3.00
2019-06-08T03:13:43.771Z,3.02
2019-06-08T03:16:14.894Z,3.12
2019-06-08T03:18:45.691Z,3.10
2019-06-08T03:21:16.801Z,2.75
2019-06-08T03:23:47.899Z,2.37
2019-06-08T03:26:18.330Z,2.58
2019-06-08T03:28:49.770Z,2.55
2019-06-08T03:31:20.907Z,2.70
2019-06-08T03:33:55.822Z,2.85
2019-06-08T03:36:23.991Z,3.15
2019-06-08T03:38:54.504Z,2.80
2019-06-08T03:41:25.669Z,2.70
2019-06-08T03:43:56.499Z,2.80
2019-06-08T03:46:27.476Z,2.90
2019-06-08T03:48:58.669Z,2.22
2019-06-08T03:51:29.677Z,2.45
2019-06-08T03:54:00.586Z,2.80
2019-06-08T03:56:31.793Z,2.83
2019-06-08T03:59:02.998Z,2.37
2019-06-08T04:01:33.474Z,2.33
2019-06-08T04:04:04.322Z,2.87
2019-06-08T04:06:37.511Z,3.12
2019-06-08T04:09:08.877Z,2.92
2019-06-08T04:11:40.182Z,2.98
2019-06-08T04:14:12.386Z,3.08
2019-06-08T04:16:44.571Z,3.12
2019-06-08T04:19:16.104Z,2.10
2019-06-08T04:21:46.928Z,2.62
2019-06-08T04:24:18.008Z,2.52
2019-06-08T04:26:50.594Z,2.62
2019-06-08T04:29:22.189Z,3.15
2019-06-08T04:31:53.293Z,2.85
2019-06-08T04:34:24.857Z,3.10
2019-06-08T04:36:55.334Z,3.02
2019-06-08T04:39:25.946Z,2.90
2019-06-08T04:41:56.779Z,2.95
2019-06-08T04:44:27.682Z,2.70
2019-06-08T04:46:58.821Z,2.95
2019-06-08T04:49:29.483Z,3.25
2019-06-08T04:52:00.744Z,3.10
2019-06-08T04:54:31.591Z,2.70
2019-06-08T04:57:02.729Z,3.33
2019-06-08T04:59:33.639Z,3.02
2019-06-08T05:02:04.364Z,2.22
2019-06-08T05:04:35.241Z,2.80
2019-06-08T05:07:06.158Z,3.17
2019-06-08T05:09:37.120Z,2.90
2019-06-08T05:12:08.084Z,3.05
2019-06-08T05:14:39.336Z,3.10
2019-06-08T05:17:10.368Z,3.25
2019-06-08T05:19:41.365Z,2.72
2019-06-08T05:22:12.213Z,3.30
2019-06-08T05:24:44.203Z,3.20
2019-06-08T05:27:16.608Z,2.98
2019-06-08T05:29:47.942Z,2.87
2019-06-08T05:32:19.045Z,3.60
2019-06-08T05:34:49.798Z,3.42
2019-06-08T05:37:20.766Z,2.70
2019-06-08T05:39:52.054Z,3.30
2019-06-08T05:42:23.373Z,2.62
2019-06-08T05:44:54.060Z,3.10
2019-06-08T05:47:24.787Z,3.25
2019-06-08T05:49:55.800Z,2.65
2019-06-08T05:52:26.474Z,3.55
2019-06-08T05:54:57.107Z,3.27
2019-06-08T05:57:27.721Z,2.85
2019-06-08T05:59:58.632Z,2.90
2019-06-08T06:02:29.591Z,1.75
2019-06-08T06:05:00.335Z,3.27
2019-06-08T06:07:31.332Z,3.40
2019-06-08T06:10:02.239Z,2.85
2019-06-08T06:12:32.850Z,2.70
2019-06-08T06:15:03.482Z,3.22
2019-06-08T06:17:34.056Z,2.92
2019-06-08T06:20:07.219Z,2.87
2019-06-08T06:22:37.701Z,2.90
2019-06-08T06:25:10.533Z,3.08
2019-06-08T06:27:41.430Z,3.30
2019-06-08T06:30:13.292Z,3.98
2019-06-08T06:32:45.579Z,3.15
2019-06-08T06:35:17.256Z,3.08
2019-06-08T06:37:50.157Z,3.05
2019-06-08T06:40:21.457Z,3.40
2019-06-08T06:42:52.405Z,3.08
2019-06-08T06:45:23.743Z,3.20
2019-06-08T06:47:54.705Z,3.10
2019-06-08T06:50:26.182Z,3.45
2019-06-08T06:52:56.913Z,2.75
2019-06-08T06:55:28.085Z,3.62
2019-06-08T06:57:58.958Z,3.02
2019-06-08T07:00:34.193Z,3.27
2019-06-08T07:03:05.326Z,3.08
2019-06-08T07:05:36.358Z,2.72
2019-06-08T07:08:07.360Z,2.83
2019-06-08T07:10:38.157Z,3.05
2019-06-08T07:13:09.174Z,2.85
2019-06-08T07:15:41.772Z,2.87
2019-06-08T07:18:12.768Z,3.17
2019-06-08T07:20:44.191Z,2.58
2019-06-08T07:23:15.368Z,2.77
2019-06-08T07:25:46.312Z,3.30
2019-06-08T07:28:17.443Z,2.95
2019-06-08T07:30:48.846Z,2.83
2019-06-08T07:33:19.455Z,2.65
2019-06-08T07:35:51.490Z,2.33
2019-06-08T07:38:22.816Z,2.30
2019-06-08T07:40:54.186Z,2.60
2019-06-08T07:43:26.118Z,4.58
2019-06-08T07:45:58.455Z,2.85
2019-06-08T07:48:29.187Z,2.75
2019-06-08T07:51:00.266Z,2.50
2019-06-08T07:53:31.481Z,2.98
2019-06-08T07:56:02.367Z,2.83
2019-06-08T07:58:33.150Z,2.70
2019-06-08T08:01:08.257Z,3.33
2019-06-08T08:03:37.368Z,2.92
2019-06-08T08:06:08.818Z,2.40
2019-06-08T08:08:40.126Z,2.37
2019-06-08T08:11:10.779Z,2.98
2019-06-08T08:13:41.443Z,2.67
2019-06-08T08:16:12.525Z,2.62
2019-06-08T08:18:43.902Z,2.42
2019-06-08T08:21:22.177Z,2.92
2019-06-08T08:23:47.835Z,2.27
2019-06-08T08:26:20.581Z,2.35
2019-06-08T08:28:53.494Z,2.65
2019-06-08T08:31:24.543Z,2.52
2019-06-08T08:33:58.516Z,2.50
2019-06-08T08:36:29.453Z,2.37
2019-06-08T08:39:02.451Z,2.33
2019-06-08T08:41:33.420Z,2.40
2019-06-08T08:44:04.939Z,2.25
2019-06-08T08:46:38.676Z,2.50
2019-06-08T08:49:12.911Z,2.47
2019-06-08T08:51:42.427Z,2.08
2019-06-08T08:54:13.268Z,2.40
2019-06-08T08:56:44.285Z,2.42
2019-06-08T08:59:17.614Z,2.02
2019-06-08T09:01:48.289Z,2.60
2019-06-08T09:04:19.561Z,2.72
2019-06-08T09:06:50.950Z,2.02
2019-06-08T09:09:22.817Z,2.20
2019-06-08T09:11:54.895Z,2.50
2019-06-08T09:14:28.002Z,2.40
2019-06-08T09:17:01.689Z,2.35
2019-06-08T09:19:31.409Z,2.25
2019-06-08T09:22:03.898Z,2.25
2019-06-08T09:24:34.592Z,2.30
2019-06-08T09:27:07.792Z,2.20
2019-06-08T09:29:38.795Z,2.17
2019-06-08T09:32:09.973Z,1.62
2019-06-08T09:34:41.159Z,1.90
2019-06-08T09:37:12.026Z,1.82
2019-06-08T09:39:42.702Z,1.90
2019-06-08T09:42:13.543Z,1.92
2019-06-08T09:44:44.502Z,2.10
2019-06-08T09:47:17.920Z,1.80
2019-06-08T09:49:48.138Z,1.82
2019-06-08T09:52:21.651Z,2.08
2019-06-08T09:54:54.166Z,2.35
2019-06-08T09:57:24.957Z,1.90
2019-06-08T09:59:57.214Z,1.70
2019-06-08T10:02:28.844Z,1.70
2019-06-08T10:05:02.439Z,1.90
2019-06-08T10:07:32.398Z,1.92
2019-06-08T10:10:04.778Z,2.12
2019-06-08T10:12:37.790Z,1.62
2019-06-08T10:15:10.233Z,1.92
2019-06-08T10:17:41.314Z,2.15
2019-06-08T10:20:12.060Z,2.22
2019-06-08T10:22:42.515Z,1.60
2019-06-08T10:25:13.832Z,1.77
2019-06-08T10:27:44.445Z,1.90
2019-06-08T10:30:15.269Z,1.35
2019-06-08T10:32:50.379Z,1.90
2019-06-08T10:35:20.982Z,1.57
2019-06-08T10:37:55.075Z,1.40
2019-06-08T10:40:23.784Z,1.67
2019-06-08T10:42:54.686Z,1.50
2019-06-08T10:45:25.615Z,1.55
2019-06-08T10:47:59.398Z,1.80
2019-06-08T10:50:29.190Z,1.47
2019-06-08T10:53:03.657Z,1.80
2019-06-08T10:55:33.274Z,3.55
2019-06-08T10:58:04.526Z,1.60
2019-06-08T11:00:35.570Z,1.60
2019-06-08T11:03:09.332Z,2.00
2019-06-08T11:05:39.795Z,1.67
2019-06-08T11:08:14.243Z,1.70
2019-06-08T11:10:42.576Z,1.70
2019-06-08T11:13:15.209Z,1.80
2019-06-08T11:15:48.009Z,1.75
2019-06-08T11:18:18.585Z,1.42
2019-06-08T11:20:49.436Z,1.85
2019-06-08T11:23:20.477Z,1.60
2019-06-08T11:25:51.175Z,1.40
2019-06-08T11:28:22.026Z,1.60
2019-06-08T11:30:52.659Z,1.50
2019-06-08T11:33:23.342Z,1.80
2019-06-08T11:35:53.825Z,1.55
2019-06-08T11:38:24.352Z,1.77
2019-06-08T11:40:57.499Z,1.47
2019-06-08T11:43:28.725Z,1.72
2019-06-08T11:46:00.555Z,1.60
2019-06-08T11:48:31.750Z,1.87
2019-06-08T11:51:02.643Z,1.62
2019-06-08T11:53:33.326Z,1.77
2019-06-08T11:56:09.440Z,2.08
2019-06-08T11:58:40.037Z,1.40
2019-06-08T12:01:13.714Z,1.65
2019-06-08T12:03:43.518Z,1.75
2019-06-08T12:06:14.686Z,1.57
2019-06-08T12:08:47.292Z,1.57
2019-06-08T12:11:20.919Z,1.75
2019-06-08T12:13:50.846Z,1.40
2019-06-08T12:16:22.448Z,1.70
2019-06-08T12:18:53.421Z,1.35
2019-06-08T12:21:24.457Z,1.60
2019-06-08T12:23:55.825Z,1.47
2019-06-08T12:26:26.279Z,1.57
2019-06-08T12:28:58.428Z,1.20
2019-06-08T12:31:30.458Z,1.40
2019-06-08T12:34:01.542Z,1.55
2019-06-08T12:36:32.978Z,1.57
2019-06-08T12:39:08.502Z,1.30
2019-06-08T12:41:38.308Z,1.82
2019-06-08T12:44:12.119Z,1.30
2019-06-08T12:46:42.236Z,1.30
2019-06-08T12:49:14.427Z,1.22
2019-06-08T12:51:45.847Z,1.57
2019-06-08T12:54:19.381Z,1.67
2019-06-08T12:56:49.966Z,1.70
2019-06-08T12:59:22.887Z,1.35
2019-06-08T13:01:53.397Z,1.60
2019-06-08T13:04:24.760Z,1.45
2019-06-08T13:06:55.495Z,1.15
2019-06-08T13:09:29.754Z,1.65
2019-06-08T13:11:59.447Z,1.25
2019-06-08T13:14:30.970Z,1.42
2019-06-08T13:17:01.743Z,1.32
2019-06-08T13:19:32.661Z,1.25
2019-06-08T13:22:03.543Z,1.47
2019-06-08T13:24:34.702Z,1.30
2019-06-08T13:27:05.708Z,1.30
2019-06-08T13:29:36.256Z,1.15
2019-06-08T13:32:07.835Z,1.50
2019-06-08T13:34:38.766Z,1.10
2019-06-08T13:37:10.633Z,1.15
2019-06-08T13:39:41.234Z,1.32
2019-06-08T13:42:13.188Z,1.17
2019-06-08T13:44:44.107Z,1.25
2019-06-08T13:47:16.507Z,1.12
2019-06-08T13:49:47.967Z,1.45
2019-06-08T13:52:22.153Z,1.50
2019-06-08T13:54:51.993Z,1.20
2019-06-08T13:57:24.931Z,1.20
2019-06-08T13:59:57.704Z,1.15
2019-06-08T14:02:30.979Z,1.50
2019-06-08T14:05:00.087Z,1.35
2019-06-08T14:07:34.310Z,1.42
2019-06-08T14:10:04.158Z,1.20
2019-06-08T14:12:35.016Z,1.20
2019-06-08T14:15:08.631Z,1.00
2019-06-08T14:17:39.939Z,1.37
2019-06-08T14:20:10.848Z,1.42
2019-06-08T14:22:42.051Z,0.90
2019-06-08T14:25:12.538Z,1.07
2019-06-08T14:27:43.380Z,1.12
2019-06-08T14:30:14.458Z,1.10
2019-06-08T14:32:47.788Z,1.40
2019-06-08T14:35:21.990Z,1.15
2019-06-08T14:37:50.953Z,3.17
2019-06-08T14:40:22.033Z,1.27
2019-06-08T14:42:53.044Z,1.37
2019-06-08T14:45:24.743Z,1.35
2019-06-08T14:47:55.804Z,1.95
2019-06-08T14:50:29.273Z,1.32
2019-06-08T14:52:59.265Z,1.50
2019-06-08T14:55:34.027Z,1.32
2019-06-08T14:58:03.076Z,1.25
2019-06-08T15:00:34.178Z,1.47
2019-06-08T15:03:07.517Z,1.20
2019-06-08T15:05:37.205Z,1.50
2019-06-08T15:08:08.312Z,1.35
2019-06-08T15:10:39.250Z,1.35
2019-06-08T15:13:10.047Z,1.20
2019-06-08T15:15:40.417Z,1.30
2019-06-08T15:18:11.492Z,1.45
2019-06-08T15:20:42.371Z,1.32
2019-06-08T15:23:16.735Z,1.20
2019-06-08T15:25:46.782Z,1.27
2019-06-08T15:28:18.209Z,1.12
2019-06-08T15:30:49.463Z,1.32
2019-06-08T15:33:21.499Z,1.20
2019-06-08T15:35:52.186Z,1.10
2019-06-08T15:38:23.849Z,1.27
2019-06-08T15:40:54.345Z,1.30
2019-06-08T15:43:28.241Z,1.07
2019-06-08T15:45:59.152Z,1.57
2019-06-08T15:48:31.988Z,1.07
2019-06-08T15:51:02.872Z,1.70
2019-06-08T15:53:34.214Z,1.52
2019-06-08T15:56:05.159Z,1.40
2019-06-08T15:58:40.160Z,1.27
2019-06-08T16:01:10.560Z,1.10
2019-06-08T16:03:41.195Z,1.50
2019-06-08T16:06:12.491Z,1.57
2019-06-08T16:08:43.487Z,0.95
2019-06-08T16:11:14.645Z,1.50
2019-06-08T16:13:45.787Z,1.37
2019-06-08T16:16:16.928Z,1.50
2019-06-08T16:18:48.012Z,1.37
2019-06-08T16:21:18.897Z,1.30
2019-06-08T16:23:49.979Z,1.30
2019-06-08T16:26:20.714Z,1.15
2019-06-08T16:28:51.667Z,1.50
2019-06-08T16:31:22.718Z,1.30
2019-06-08T16:33:53.542Z,1.40
2019-06-08T16:36:23.956Z,1.10
2019-06-08T16:38:55.106Z,1.50
2019-06-08T16:41:26.074Z,1.35
2019-06-08T16:43:57.293Z,1.22
2019-06-08T16:46:28.355Z,1.32
2019-06-08T16:48:59.311Z,1.30
2019-06-08T16:51:31.236Z,1.30
2019-06-08T16:54:02.435Z,1.60
2019-06-08T16:56:34.138Z,1.60
2019-06-08T16:59:05.238Z,1.52
2019-06-08T17:01:36.867Z,1.32
2019-06-08T17:04:07.648Z,1.25
2019-06-08T17:06:39.393Z,1.22
2019-06-08T17:09:10.143Z,1.07
2019-06-08T17:11:40.778Z,0.90
2019-06-08T17:14:11.135Z,0.95
2019-06-08T17:16:41.571Z,1.10
2019-06-08T17:19:12.291Z,1.30
2019-06-08T17:21:43.532Z,1.35
2019-06-08T17:24:15.074Z,1.17
2019-06-08T17:26:46.017Z,1.32
2019-06-08T17:29:16.381Z,1.47
2019-06-08T17:31:47.822Z,1.10
2019-06-08T17:34:20.723Z,1.32
2019-06-08T17:36:51.525Z,1.40
2019-06-08T17:39:22.271Z,1.65
2019-06-08T17:41:53.349Z,1.40
2019-06-08T17:44:24.436Z,1.50
2019-06-08T17:46:55.154Z,1.40
2019-06-08T17:49:25.886Z,1.70
2019-06-08T17:51:57.471Z,1.40
2019-06-08T17:54:28.524Z,1.80
2019-06-08T17:56:59.522Z,1.35
2019-06-08T17:59:30.822Z,1.30
2019-06-08T18:02:01.774Z,1.65
2019-06-08T18:04:33.501Z,1.55
2019-06-08T18:07:04.420Z,1.60
2019-06-08T18:09:38.761Z,1.40
2019-06-08T18:12:08.735Z,1.82
2019-06-08T18:14:41.956Z,1.90
2019-06-08T18:17:14.273Z,1.75
2019-06-08T18:19:47.109Z,1.70
2019-06-08T18:22:18.635Z,1.70
2019-06-08T18:24:49.672Z,1.60
2019-06-08T18:27:20.140Z,1.47
2019-06-08T18:29:50.790Z,1.70
2019-06-08T18:32:22.001Z,1.47
2019-06-08T18:34:52.440Z,1.62
2019-06-08T18:37:23.392Z,1.77
2019-06-08T18:39:54.709Z,1.90
2019-06-08T18:42:27.013Z,1.50
2019-06-08T18:44:58.389Z,1.70
2019-06-08T18:47:29.093Z,1.87
2019-06-08T18:50:00.149Z,1.90
2019-06-08T18:52:30.839Z,1.80
2019-06-08T18:55:02.313Z,1.60
2019-06-08T18:57:33.358Z,1.65
2019-06-08T19:00:08.371Z,1.75
2019-06-08T19:02:39.935Z,1.70
2019-06-08T19:05:09.723Z,1.90
2019-06-08T19:07:41.687Z,1.75
2019-06-08T19:10:14.529Z,1.90
2019-06-08T19:12:48.142Z,1.90
2019-06-08T19:15:21.861Z,1.70
2019-06-08T19:17:54.401Z,1.70
2019-06-08T19:20:25.506Z,2.05
2019-06-08T19:22:57.806Z,1.75
2019-06-08T19:25:28.393Z,1.98
2019-06-08T19:28:00.023Z,1.80
2019-06-08T19:30:30.679Z,1.70
2019-06-08T19:33:01.587Z,2.25
2019-06-08T19:35:34.567Z,2.20
2019-06-08T19:38:04.592Z,2.30
2019-06-08T19:40:37.587Z,2.02
2019-06-08T19:43:08.316Z,2.62
2019-06-08T19:45:41.846Z,1.98
2019-06-08T19:48:11.975Z,2.05
2019-06-08T19:50:42.847Z,2.00
2019-06-08T19:53:13.516Z,2.00
2019-06-08T19:55:45.215Z,1.85
2019-06-08T19:58:18.065Z,2.15
2019-06-08T20:00:53.262Z,2.45
2019-06-08T20:03:21.212Z,2.45
2019-06-08T20:05:52.081Z,2.20
2019-06-08T20:08:23.474Z,2.35
2019-06-08T20:10:53.758Z,1.98
2019-06-08T20:13:23.728Z,2.17
2019-06-08T20:15:58.317Z,2.55
2019-06-08T20:18:27.927Z,2.02
2019-06-08T20:20:58.727Z,2.27
2019-06-08T20:23:28.900Z,2.30
2019-06-08T20:26:00.854Z,2.27
2019-06-08T20:28:30.478Z,1.92
2019-06-08T20:31:01.271Z,2.47
2019-06-08T20:33:31.649Z,2.62
2019-06-08T20:36:01.531Z,2.80
2019-06-08T20:38:37.894Z,2.47
2019-06-08T20:41:03.587Z,2.60
2019-06-08T20:43:33.950Z,2.80
2019-06-08T20:46:04.297Z,2.33
2019-06-08T20:48:34.679Z,2.40
2019-06-08T20:51:04.793Z,2.95
2019-06-08T20:53:34.676Z,2.87
2019-06-08T20:56:04.673Z,2.85
2019-06-08T20:58:37.026Z,2.50
2019-06-08T21:01:07.351Z,2.50
2019-06-08T21:03:37.433Z,2.65
2019-06-08T21:06:07.765Z,2.27
2019-06-08T21:08:37.806Z,2.72
2019-06-08T21:11:08.445Z,2.02
2019-06-08T21:13:38.766Z,2.12
2019-06-08T21:16:08.766Z,2.90
2019-06-08T21:18:38.768Z,2.40
2019-06-08T21:21:08.772Z,2.37
2019-06-08T21:23:38.768Z,2.80
2019-06-08T21:26:09.125Z,2.50
2019-06-08T21:28:39.243Z,2.83
2019-06-08T21:31:09.734Z,2.90
2019-06-08T21:33:40.101Z,2.70
2019-06-08T21:36:10.123Z,2.90
2019-06-08T21:38:40.098Z,2.70
2019-06-08T21:41:10.116Z,3.00
2019-06-08T21:43:41.059Z,3.10
2019-06-08T21:46:11.190Z,3.45
2019-06-08T21:48:41.425Z,3.00
2019-06-08T21:51:11.421Z,2.98
2019-06-08T21:53:41.422Z,2.98
2019-06-08T21:56:11.421Z,2.72
2019-06-08T21:58:41.425Z,3.35
2019-06-08T22:01:12.152Z,2.83
2019-06-08T22:03:42.177Z,2.50
2019-06-08T22:06:12.151Z,3.08
2019-06-08T22:08:42.183Z,2.70
2019-06-08T22:11:12.161Z,2.77
2019-06-08T22:13:42.230Z,2.77
2019-06-08T22:16:12.398Z,2.98
2019-06-08T22:18:42.419Z,3.12
2019-06-08T22:21:12.407Z,3.70
2019-06-08T22:23:42.531Z,3.05
2019-06-08T22:26:12.533Z,3.20
2019-06-08T22:28:42.510Z,3.10
2019-06-08T22:31:12.558Z,3.60
2019-06-08T22:33:42.664Z,3.50
2019-06-08T22:36:12.786Z,3.50
2019-06-08T22:38:42.665Z,3.00
2019-06-08T22:41:12.782Z,3.30
2019-06-08T22:43:42.790Z,3.33
2019-06-08T22:46:13.500Z,3.45
2019-06-08T22:48:43.501Z,3.25
2019-06-08T22:51:13.624Z,3.35
2019-06-08T22:53:43.626Z,3.40
2019-06-08T22:56:13.513Z,3.27
2019-06-08T22:58:43.509Z,3.62
2019-06-08T23:01:13.390Z,3.40
2019-06-08T23:03:43.398Z,3.92
2019-06-08T23:06:13.402Z,4.20
2019-06-08T23:08:43.514Z,3.95
2019-06-08T23:11:13.398Z,3.58
2019-06-08T23:13:43.521Z,3.83
2019-06-08T23:16:13.519Z,3.67
2019-06-08T23:18:43.400Z,3.95
2019-06-08T23:21:13.404Z,4.15
2019-06-08T23:23:43.287Z,3.85
2019-06-08T23:26:13.290Z,4.65
2019-06-08T23:28:43.178Z,4.05
2019-06-08T23:31:21.355Z,4.58
2019-06-08T23:33:44.732Z,4.35
2019-06-08T23:36:44.962Z,18.48
2019-06-08T23:38:48.110Z,22.15
2019-06-08T23:41:18.344Z,20.62
2019-06-08T23:43:48.338Z,22.32
2019-06-08T23:46:19.194Z,22.27
2019-06-08T23:48:49.181Z,21.27
2019-06-08T23:51:19.065Z,20.95
2019-06-08T23:53:49.065Z,20.00
2019-06-08T23:56:19.197Z,15.20
2019-06-08T23:58:49.195Z,14.03
